• Join FlightAware (Why Join?)
  • Login
  • US Flag 
03:08AM EDT


 

Airport Tracker/Info


-or-


 

Live Flight TrackerFlight Track Log ✈ N79470 ✈ 11-Jul-2013 ✈ KMVL - KMVL

Flight Track Log - Related Links

Times and Time Zones

All times are in EDT time to prevent confusion due to time zone crossing. See the N79470 flight status page for this flight to view local times or setup timezone preferences in your user account.

Time Position Orientation Groundspeed Altitude Reporting Facility
EDT Latitude Longitude Course Direction KTS MPH feet Rate Location/Type
09:31AM 44.4925 -72.4894 254° West 119 137 5,300  Level Boston Center
09:32AM 44.5050 -72.5100 310° West 90 104 5,800 480 Climbing Boston Center
09:33AM 44.5008 -72.5389 259° West 59 68 6,300 420 Climbing Boston Center
09:34AM 44.4989 -72.5594 262° West 59 68 6,700 540 Climbing Boston Center
09:35AM 44.4967 -72.5944 265° West 70 81 7,400 240 Climbing Boston Center
09:36AM 44.5346 -72.6140 254° West  Level Estimated
09:36AM 44.4967 -72.6264 270° West 75 86 7,200  Level Boston Center
09:37AM 44.4944 -72.6611 265° West 88 101 7,100  Descending Boston Center
09:38AM 44.4922 -72.6933 264° West 93 107 7,200  Climbing Boston Center
09:39AM 44.4881 -72.7253 260° West 87 100 7,100 -60 Descending Boston Center
09:40AM 44.4817 -72.7542 253° West 87 100 7,100  Level Boston Center
09:41AM 44.4836 -72.7864 275° West 87 100 7,200 -60 Climbing Boston Center
09:42AM 44.4753 -72.8153 248° West 87 100 7,000 -120 Descending Boston Center
09:43AM 44.4689 -72.8444 253° West 87 100 7,000 60 Level Boston Center
09:44AM 44.4647 -72.8678 256° West 81 93 7,200  Climbing Boston Center
09:45AM 44.4564 -72.8967 248° West 81 93 7,000 -60 Descending Boston Center
09:46AM 44.4500 -72.9314 256° West 86 99 7,100  Climbing Boston Center
09:47AM 44.4414 -72.9633 249° West 92 106 7,000 -120 Descending Boston Center
09:49AM 44.4248 -73.0217 248° West  Level FlightAware Approximate
09:56AM 44.4396 -73.2320 320° Northwest  Level FlightAware Approximate
09:57AM 44.4599 -73.2556 320° Northwest  Level FlightAware Approximate
09:58AM 44.4802 -73.2792 320° Northwest  Level FlightAware Approximate
09:59AM 44.5005 -73.3028 320° Northwest  Level FlightAware Approximate
10:00AM 44.5208 -73.3264 320° Northwest  Level FlightAware Approximate
10:01AM 44.5411 -73.3501 320° Northwest  Level FlightAware Approximate
10:02AM 44.5614 -73.3738 320° Northwest  Level FlightAware Approximate
10:03AM 44.5816 -73.3975 320° Northwest  Level FlightAware Approximate
10:04AM 44.6019 -73.4212 320° Northwest  Level FlightAware Approximate
10:05AM 44.6222 -73.4449 320° Northwest  Level FlightAware Approximate
10:06AM 44.6424 -73.4687 320° Northwest  Level FlightAware Approximate
10:07AM 44.6627 -73.4924 320° Northwest  Level FlightAware Approximate
10:08AM 44.6829 -73.5162 320° Northwest  Level FlightAware Approximate
10:09AM 44.6767 -73.4816 105° East  Level FlightAware Approximate
10:10AM 44.6698 -73.4457 105° East  Level FlightAware Approximate
10:11AM 44.6630 -73.4099 105° East  Level FlightAware Approximate
10:12AM 44.6561 -73.3741 105° East  Level FlightAware Approximate
10:13AM 44.6493 -73.3383 105° East  Level FlightAware Approximate
10:14AM 44.6424 -73.3025 105° East  Level FlightAware Approximate
10:15AM 44.6355 -73.2667 105° East  Level FlightAware Approximate
10:16AM 44.6286 -73.2309 105° East  Level FlightAware Approximate
10:17AM 44.6217 -73.1952 105° East  Level FlightAware Approximate
10:18AM 44.6148 -73.1594 105° East  Level FlightAware Approximate
10:19AM 44.6078 -73.1236 105° East  Level FlightAware Approximate
10:20AM 44.6009 -73.0879 105° East  Level FlightAware Approximate
10:21AM 44.5958 -73.0516 101° East  Level FlightAware Approximate
10:22AM 44.5910 -73.0151 101° East  Level FlightAware Approximate
10:23AM 44.5861 -72.9787 101° East  Level FlightAware Approximate
10:24AM 44.5813 -72.9423 101° East  Level FlightAware Approximate
10:25AM 44.5764 -72.9059 101° East  Level FlightAware Approximate
10:26AM 44.5715 -72.8695 101° East  Level FlightAware Approximate
10:27AM 44.5666 -72.8332 101° East  Level FlightAware Approximate
10:28AM 44.5615 -72.7968 101° East  Level FlightAware Approximate
10:29AM 44.5563 -72.7605 101° East  Level FlightAware Approximate
10:30AM 44.5511 -72.7243 101° East  Level FlightAware Approximate
10:31AM 44.5380 -72.6927 125° Southeast  Level FlightAware Approximate
10:32AM 44.5333 -72.6578 90° East  Level FlightAware Approximate
10:33AM 44.5333 -72.6208 90° East  Level FlightAware Approximate
10:34AM 44.5346 -72.6140 90° East  Level Estimated
10:35AM 44.5346 -72.6140 90° East  Level Estimated
10:36AM 44.5346 -72.6140 90° East  Level Estimated
10:37AM 44.5346 -72.6140 90° East  Level Estimated
10:38AM 44.5346 -72.6140 90° East  Level Estimated
10:39AM 44.5346 -72.6140 90° East  Level Estimated